createdAt,value
2023-03-17T00:03:55.371Z,2.22
2023-03-17T00:09:01.354Z,1.40
2023-03-17T00:14:05.374Z,1.65
2023-03-17T00:19:16.626Z,1.67
2023-03-17T00:24:22.403Z,1.42
2023-03-17T00:29:26.979Z,1.60
2023-03-17T00:34:31.111Z,1.33
2023-03-17T00:39:36.763Z,1.77
2023-03-17T00:44:40.799Z,1.42
2023-03-17T00:49:45.136Z,1.45
2023-03-17T00:54:50.562Z,1.27
2023-03-17T00:59:54.773Z,1.40
2023-03-17T01:05:06.359Z,1.85
2023-03-17T01:10:19.419Z,2.25
2023-03-17T01:15:24.712Z,1.95
2023-03-17T01:20:32.754Z,1.67
2023-03-17T01:25:39.185Z,2.00
2023-03-17T01:30:43.837Z,1.33
2023-03-17T01:35:48.434Z,1.60
2023-03-17T01:40:54.836Z,1.85
2023-03-17T01:46:29.249Z,1.40
2023-03-17T01:51:38.871Z,1.73
2023-03-17T01:56:50.117Z,1.90
2023-03-17T02:02:00.756Z,1.75
2023-03-17T02:07:05.561Z,1.38
2023-03-17T02:12:13.493Z,1.30
2023-03-17T02:17:18.427Z,1.75
2023-03-17T02:22:24.026Z,1.30
2023-03-17T02:27:34.832Z,1.48
2023-03-17T02:32:40.096Z,1.30
2023-03-17T02:37:46.698Z,1.52
2023-03-17T02:42:51.390Z,1.30
2023-03-17T02:47:57.261Z,1.13
2023-03-17T02:53:02.593Z,1.52
2023-03-17T02:58:06.696Z,1.65
2023-03-17T03:03:10.771Z,1.27
2023-03-17T03:08:16.506Z,1.38
2023-03-17T03:13:21.848Z,1.35
2023-03-17T03:18:26.161Z,1.25
2023-03-17T03:23:31.585Z,1.40
2023-03-17T03:28:36.142Z,1.25
2023-03-17T03:33:40.112Z,1.25
2023-03-17T03:38:45.803Z,0.98
2023-03-17T03:43:49.762Z,0.98
2023-03-17T03:48:53.915Z,1.10
2023-03-17T03:53:59.288Z,1.30
2023-03-17T03:59:03.257Z,1.17
2023-03-17T04:04:07.244Z,1.35
2023-03-17T04:09:12.707Z,1.20
2023-03-17T04:14:16.728Z,1.23
2023-03-17T04:19:21.597Z,1.08
2023-03-17T04:24:27.689Z,1.10
2023-03-17T04:29:32.435Z,0.85
2023-03-17T04:34:36.459Z,1.25
2023-03-17T04:39:42.189Z,0.73
2023-03-17T04:44:46.549Z,0.80
2023-03-17T04:49:50.817Z,1.08
2023-03-17T04:54:56.390Z,1.02
2023-03-17T05:00:00.343Z,1.13
2023-03-17T05:05:04.534Z,1.20
2023-03-17T05:10:12.393Z,1.15
2023-03-17T05:15:17.125Z,1.02
2023-03-17T05:20:21.314Z,0.85
2023-03-17T05:25:26.691Z,1.00
2023-03-17T05:30:31.228Z,0.98
2023-03-17T05:35:35.592Z,1.17
2023-03-17T05:40:41.204Z,1.08
2023-03-17T05:45:45.611Z,1.33
2023-03-17T05:50:49.715Z,1.08
2023-03-17T05:55:55.246Z,0.95
2023-03-17T06:00:59.366Z,1.20
2023-03-17T06:06:03.526Z,1.15
2023-03-17T06:11:08.997Z,1.27
2023-03-17T06:16:13.055Z,1.00
2023-03-17T06:21:17.256Z,1.10
2023-03-17T06:26:22.986Z,1.10
2023-03-17T06:31:27.872Z,0.80
2023-03-17T06:36:32.770Z,0.75
2023-03-17T06:41:38.144Z,1.45
2023-03-17T06:46:42.509Z,1.85
2023-03-17T06:51:46.713Z,1.63
2023-03-17T06:56:52.270Z,1.30
2023-03-17T07:01:56.355Z,1.38
2023-03-17T07:07:00.498Z,1.10
2023-03-17T07:12:07.257Z,1.00
2023-03-17T07:17:14.798Z,1.10
2023-03-17T07:22:18.991Z,1.23
2023-03-17T07:27:25.404Z,1.02
2023-03-17T07:32:29.599Z,1.40
2023-03-17T07:37:33.906Z,0.98
2023-03-17T07:42:39.349Z,1.02
2023-03-17T07:47:43.379Z,1.58
2023-03-17T07:52:47.818Z,1.08
2023-03-17T07:57:53.760Z,1.08
2023-03-17T08:03:09.491Z,1.17
2023-03-17T08:08:14.624Z,1.02
2023-03-17T08:13:20.317Z,1.40
2023-03-17T08:18:24.517Z,1.30
2023-03-17T08:23:28.555Z,1.15
2023-03-17T08:28:34.600Z,1.42
2023-03-17T08:33:38.619Z,1.23
2023-03-17T08:38:44.048Z,1.35
2023-03-17T08:43:50.500Z,1.50
2023-03-17T08:48:56.460Z,1.27
2023-03-17T08:54:01.213Z,1.63
2023-03-17T08:59:08.138Z,2.17
2023-03-17T09:04:12.241Z,1.67
2023-03-17T09:09:16.893Z,1.20
2023-03-17T09:14:24.883Z,1.20
2023-03-17T09:19:29.016Z,1.58
2023-03-17T09:24:33.051Z,1.80
2023-03-17T09:29:38.504Z,1.73
2023-03-17T09:34:42.979Z,2.30
2023-03-17T09:39:47.193Z,1.63
2023-03-17T09:45:12.424Z,1.50
2023-03-17T09:50:21.118Z,2.28
2023-03-17T09:55:29.618Z,1.98
2023-03-17T10:00:35.774Z,2.92
2023-03-17T10:05:40.033Z,2.70
2023-03-17T10:10:49.205Z,1.65
2023-03-17T10:15:59.812Z,2.05
2023-03-17T10:21:07.692Z,2.08
2023-03-17T10:26:28.745Z,1.95
2023-03-17T10:31:38.024Z,2.42
2023-03-17T10:36:45.690Z,2.50
2023-03-17T10:41:57.021Z,2.13
2023-03-17T10:47:02.984Z,1.77
2023-03-17T10:52:09.532Z,2.17
2023-03-17T10:57:15.882Z,2.10
2023-03-17T11:02:28.369Z,2.42
2023-03-17T11:07:39.492Z,2.80
2023-03-17T11:12:44.005Z,2.33
2023-03-17T11:17:57.208Z,2.35
2023-03-17T11:23:10.702Z,2.75
2023-03-17T11:28:21.329Z,3.58
2023-03-17T11:33:37.384Z,2.22
2023-03-17T11:38:52.428Z,2.25
2023-03-17T11:44:40.300Z,2.40
2023-03-17T11:49:49.765Z,2.50
2023-03-17T11:55:01.272Z,2.70
2023-03-17T12:00:12.758Z,2.30
2023-03-17T12:05:24.100Z,2.47
2023-03-17T12:10:36.457Z,2.55
2023-03-17T12:15:46.610Z,2.22
2023-03-17T12:20:58.939Z,2.60
2023-03-17T12:26:08.558Z,2.63
2023-03-17T12:31:20.546Z,2.58
2023-03-17T12:36:28.159Z,2.55
2023-03-17T12:41:56.869Z,2.17
2023-03-17T12:47:41.635Z,2.33
2023-03-17T12:53:11.411Z,2.55
2023-03-17T12:58:30.759Z,2.50
2023-03-17T13:03:38.576Z,2.90
2023-03-17T13:08:44.235Z,2.97
2023-03-17T13:14:08.597Z,2.45
2023-03-17T13:19:22.936Z,2.22
2023-03-17T13:24:47.734Z,2.28
2023-03-17T13:29:53.089Z,2.92
2023-03-17T13:35:16.783Z,3.05
2023-03-17T13:40:26.546Z,2.78
2023-03-17T13:45:38.759Z,2.40
2023-03-17T13:50:44.359Z,2.30
2023-03-17T13:56:16.663Z,2.08
2023-03-17T14:01:22.646Z,2.97
2023-03-17T14:06:31.417Z,2.43
2023-03-17T14:11:39.894Z,2.60
2023-03-17T14:16:54.265Z,2.28
2023-03-17T14:22:05.365Z,2.30
2023-03-17T14:27:15.008Z,2.10
2023-03-17T14:32:22.070Z,2.15
2023-03-17T14:37:27.037Z,3.08
2023-03-17T14:42:33.306Z,2.63
2023-03-17T14:47:43.471Z,2.42
2023-03-17T14:52:47.642Z,1.80
2023-03-17T14:57:54.222Z,2.20
2023-03-17T15:03:00.613Z,1.95
2023-03-17T15:08:46.208Z,1.88
2023-03-17T15:13:56.052Z,2.00
2023-03-17T15:19:07.908Z,1.65
2023-03-17T15:24:39.974Z,2.22
2023-03-17T15:29:45.810Z,2.25
2023-03-17T15:34:51.753Z,1.75
2023-03-17T15:39:57.279Z,1.83
2023-03-17T15:45:03.870Z,2.75
2023-03-17T15:50:28.611Z,2.22
2023-03-17T15:55:33.440Z,2.95
2023-03-17T16:00:39.219Z,2.80
2023-03-17T16:05:44.474Z,3.20
2023-03-17T16:10:48.715Z,2.65
2023-03-17T16:15:59.246Z,2.60
2023-03-17T16:21:04.293Z,2.05
2023-03-17T16:26:15.485Z,1.80
2023-03-17T16:31:25.521Z,1.30
2023-03-17T16:36:29.831Z,1.70
2023-03-17T16:41:36.422Z,1.58
2023-03-17T16:46:44.930Z,1.40
2023-03-17T16:51:50.524Z,1.42
2023-03-17T16:56:54.946Z,2.03
2023-03-17T17:02:01.207Z,1.73
2023-03-17T17:07:05.333Z,2.00
2023-03-17T17:12:10.574Z,1.95
2023-03-17T17:17:16.060Z,1.67
2023-03-17T17:22:20.356Z,1.55
2023-03-17T17:27:24.390Z,1.73
2023-03-17T17:32:30.033Z,1.40
2023-03-17T17:37:34.929Z,1.33
2023-03-17T17:42:39.181Z,1.80
2023-03-17T17:47:45.076Z,1.60
2023-03-17T17:52:49.323Z,1.50
2023-03-17T17:57:53.753Z,2.13
2023-03-17T18:02:59.205Z,1.88
2023-03-17T18:08:03.788Z,1.50
2023-03-17T18:13:07.939Z,1.70
2023-03-17T18:18:13.408Z,1.63
2023-03-17T18:23:17.698Z,1.70
2023-03-17T18:28:21.900Z,1.40
2023-03-17T18:33:28.397Z,1.60
2023-03-17T18:38:32.817Z,1.75
2023-03-17T18:43:37.005Z,1.63
2023-03-17T18:48:42.554Z,2.13
2023-03-17T18:53:46.927Z,1.85
2023-03-17T18:58:51.037Z,2.45
2023-03-17T19:03:56.639Z,1.88
2023-03-17T19:09:02.303Z,1.67
2023-03-17T19:14:06.709Z,1.90
2023-03-17T19:19:12.407Z,2.28
2023-03-17T19:24:16.436Z,2.13
2023-03-17T19:29:20.529Z,1.80
2023-03-17T19:34:27.185Z,2.42
2023-03-17T19:39:31.367Z,2.22
2023-03-17T19:44:35.523Z,2.92
2023-03-17T19:49:41.911Z,2.40
2023-03-17T19:54:46.128Z,2.78
2023-03-17T19:59:50.356Z,3.83
2023-03-17T20:04:55.949Z,2.80
2023-03-17T20:10:00.196Z,3.20
2023-03-17T20:15:05.464Z,2.72
2023-03-17T20:20:14.525Z,3.58
2023-03-17T20:25:18.845Z,3.40
2023-03-17T20:30:23.499Z,3.85
2023-03-17T20:35:29.162Z,3.72
2023-03-17T20:40:33.486Z,3.38
2023-03-17T20:45:38.491Z,3.28
2023-03-17T20:50:50.988Z,2.97
2023-03-17T20:55:56.616Z,2.78
2023-03-17T21:01:01.832Z,3.03
2023-03-17T21:06:07.525Z,3.38
2023-03-17T21:11:17.577Z,3.83
2023-03-17T21:16:25.104Z,3.35
2023-03-17T21:21:32.190Z,3.28
2023-03-17T21:26:36.489Z,3.50
2023-03-17T21:31:41.078Z,3.40
2023-03-17T21:36:46.689Z,4.30
2023-03-17T21:41:52.985Z,4.20
2023-03-17T21:46:57.881Z,3.70
2023-03-17T21:52:03.542Z,3.78
2023-03-17T21:57:07.563Z,3.95
2023-03-17T22:02:13.073Z,4.32
2023-03-17T22:07:18.717Z,4.72
2023-03-17T22:12:24.038Z,5.03
2023-03-17T22:17:28.207Z,4.38
2023-03-17T22:22:34.653Z,4.30
2023-03-17T22:27:38.718Z,5.53
2023-03-17T22:32:42.999Z,4.40
2023-03-17T22:37:48.882Z,5.03
2023-03-17T22:42:52.959Z,5.30
2023-03-17T22:47:57.101Z,5.13
2023-03-17T22:53:02.572Z,4.50
2023-03-17T22:58:06.696Z,6.03
2023-03-17T23:03:10.810Z,5.30
2023-03-17T23:08:16.253Z,5.57
2023-03-17T23:13:22.383Z,5.07
2023-03-17T23:18:26.452Z,4.70
2023-03-17T23:23:32.782Z,4.53
2023-03-17T23:28:37.048Z,4.93
2023-03-17T23:33:40.995Z,5.03
2023-03-17T23:38:47.396Z,5.05
2023-03-17T23:43:51.448Z,5.13
2023-03-17T23:48:55.532Z,5.88
2023-03-17T23:54:01.106Z,5.57
2023-03-17T23:59:07.547Z,5.15
